KMCE/MCE METAR and TAF weather

Enter ICAO airport designator
Station Type Date Time Source
KMCE METAR 2019/04/22 17:53 UTC NOAA

KMCE 221753Z AUTO 00000KT 10SM CLR 21/12 A3008 RMK AO2 SLP184 T02060117 10206 20089 52007


Station Type Date Time Source
KMCE Decoded METAR 2019/04/22 17:53 UTC NOAA

MERCED MUNICIPAL AIRPORT, CA, United States (KMCE) 37-17N 120-30W 47M
Apr 22, 2019 - 01:53 PM EDT / 2019.04.22 1753 UTC
Wind: Calm:0
Visibility: 10 mile(s):0
Sky conditions: clear
Temperature: 69.1 F (20.6 C)
Dew Point: 53.1 F (11.7 C)
Relative Humidity: 56%
Pressure (altimeter): 30.08 in. Hg (1018 hPa)
Pressure tendency: 0.02 inches (0.7 hPa) higher than three hours ago
ob: KMCE 221753Z AUTO 00000KT 10SM CLR 21/12 A3008 RMK AO2 SLP184 T02060117 10206 20089 52007
cycle: 18

Station Type Date Time Source
KMCE TAF 2019/04/22 18:27 UTC NOAA

TAF KMCE 221725Z 2218/2318 31007KT P6SM SKC

Example: see airport list